createdAt,value
2019-06-08T00:00:02.333Z,1.07
2019-06-08T00:02:36.388Z,1.00
2019-06-08T00:05:10.618Z,1.10
2019-06-08T00:07:43.299Z,1.00
2019-06-08T00:10:16.971Z,1.02
2019-06-08T00:12:49.483Z,0.95
2019-06-08T00:15:22.458Z,1.10
2019-06-08T00:17:54.896Z,1.20
2019-06-08T00:20:27.411Z,1.15
2019-06-08T00:23:00.289Z,1.35
2019-06-08T00:25:32.576Z,1.10
2019-06-08T00:28:05.288Z,0.92
2019-06-08T00:30:37.303Z,1.00
2019-06-08T00:33:09.254Z,1.00
2019-06-08T00:38:14.771Z,1.23
2019-06-08T00:40:47.817Z,1.05
2019-06-08T00:43:21.375Z,1.12
2019-06-08T00:45:54.278Z,0.80
2019-06-08T00:48:26.622Z,0.88
2019-06-08T00:51:00.310Z,1.10
2019-06-08T00:53:32.792Z,0.90
2019-06-08T00:56:06.295Z,1.12
2019-06-08T00:58:46.322Z,1.07
2019-06-08T01:01:22.034Z,1.25
2019-06-08T01:03:52.674Z,1.00
2019-06-08T01:06:25.319Z,1.00
2019-06-08T01:08:57.842Z,1.10
2019-06-08T01:11:30.564Z,1.20
2019-06-08T01:14:06.290Z,1.05
2019-06-08T01:16:39.281Z,1.00
2019-06-08T01:19:11.692Z,1.00
2019-06-08T01:21:44.354Z,1.47
2019-06-08T01:24:16.690Z,1.10
2019-06-08T01:26:49.350Z,0.80
2019-06-08T01:29:24.188Z,1.02
2019-06-08T01:31:56.308Z,0.90
2019-06-08T01:34:30.944Z,0.95
2019-06-08T01:37:03.543Z,0.90
2019-06-08T01:39:36.047Z,0.78
2019-06-08T01:42:10.245Z,1.22
2019-06-08T01:44:43.291Z,1.05
2019-06-08T01:47:16.759Z,0.90
2019-06-08T01:49:49.429Z,1.00
2019-06-08T01:52:22.497Z,1.07
2019-06-08T01:55:02.219Z,1.20
2019-06-08T01:57:34.470Z,1.15
2019-06-08T02:05:45.430Z,1.00
2019-06-08T02:08:17.912Z,1.17
2019-06-08T02:10:52.299Z,1.00
2019-06-08T02:16:11.954Z,1.10
2019-06-08T02:21:23.824Z,0.90
2019-06-08T02:23:56.470Z,1.40
2019-06-08T02:26:30.379Z,0.80
2019-06-08T02:29:19.609Z,0.93
2019-06-08T02:34:23.763Z,0.80
2019-06-08T02:36:56.280Z,1.42
2019-06-08T02:39:28.656Z,1.20
2019-06-08T02:47:41.706Z,1.10
2019-06-08T02:50:19.085Z,1.40
2019-06-08T02:52:53.908Z,0.90
2019-06-08T02:55:28.750Z,0.90
2019-06-08T03:00:35.468Z,1.07
2019-06-08T03:03:09.396Z,1.10
2019-06-08T03:05:43.787Z,0.98
2019-06-08T03:08:16.294Z,0.88
2019-06-08T03:10:54.494Z,1.00
2019-06-08T03:13:27.277Z,1.00
2019-06-08T03:16:06.410Z,1.10
2019-06-08T03:18:40.171Z,0.90
2019-06-08T03:21:13.427Z,0.90
2019-06-08T03:23:45.844Z,1.00
2019-06-08T03:27:47.749Z,1.00
2019-06-08T03:30:22.151Z,1.27
2019-06-08T03:32:56.996Z,1.30
2019-06-08T03:35:47.235Z,1.00
2019-06-08T03:38:13.366Z,1.12
2019-06-08T06:49:29.840Z,2.35
2019-06-08T06:52:05.242Z,1.80
2019-06-08T06:54:38.727Z,1.86
2019-06-08T06:57:13.359Z,1.73
2019-06-08T06:59:49.242Z,1.80
2019-06-08T07:02:25.542Z,1.60
2019-06-08T07:04:58.983Z,1.98
2019-06-08T07:10:22.369Z,1.65
2019-06-08T07:12:57.296Z,1.77
2019-06-08T07:15:41.499Z,1.67
2019-06-08T07:21:00.672Z,1.70
2019-06-08T07:23:34.679Z,1.47
2019-06-08T07:26:11.243Z,1.65
2019-06-08T07:28:51.998Z,1.55
2019-06-08T07:31:36.363Z,1.62
2019-06-08T07:34:23.220Z,2.02
2019-06-08T07:37:15.461Z,1.52
2019-06-08T07:44:26.087Z,1.70
2019-06-08T07:47:16.713Z,1.63
2019-06-08T07:49:49.340Z,1.40
2019-06-08T07:52:21.963Z,1.27
2019-06-08T07:54:56.678Z,1.30
2019-06-08T07:57:30.639Z,1.60
2019-06-08T08:00:09.569Z,1.52
2019-06-08T08:02:42.301Z,1.30
2019-06-08T08:05:15.566Z,1.40
2019-06-08T08:07:48.365Z,1.57
2019-06-08T08:10:22.598Z,1.50
2019-06-08T08:15:27.686Z,1.27
2019-06-08T08:18:01.297Z,1.15
2019-06-08T08:23:08.539Z,1.47
2019-06-08T08:27:22.267Z,1.30
2019-06-08T08:30:25.403Z,1.22
2019-06-08T08:33:18.423Z,1.50
2019-06-08T13:06:04.409Z,0.95
2019-06-08T16:13:16.792Z,0.80
2019-06-08T16:15:52.404Z,0.60
2019-06-08T16:18:25.615Z,0.75
2019-06-08T16:21:00.596Z,0.90
2019-06-08T16:23:33.706Z,0.90
2019-06-08T16:26:08.631Z,1.12
2019-06-08T16:28:41.464Z,1.50
2019-06-08T16:32:15.368Z,1.00
2019-06-08T16:34:48.423Z,1.00
2019-06-08T16:37:21.469Z,0.88
2019-06-08T16:40:00.099Z,0.90
2019-06-08T16:42:32.908Z,0.95
2019-06-08T16:45:07.407Z,1.00
2019-06-08T16:47:43.224Z,1.00
2019-06-08T16:50:23.911Z,1.12
2019-06-08T16:52:49.765Z,1.17
2019-06-08T16:55:24.603Z,1.30
2019-06-08T16:57:57.743Z,1.30
2019-06-08T17:00:38.367Z,1.30
2019-06-08T17:03:08.388Z,1.60
2019-06-08T17:05:41.923Z,1.37
2019-06-08T17:08:18.640Z,4.62
2019-06-08T17:10:51.353Z,2.20
2019-06-08T17:13:25.863Z,3.72
2019-06-08T17:18:32.095Z,6.67
2019-06-08T17:23:40.590Z,5.95
2019-06-08T17:28:45.565Z,4.95
2019-06-08T17:31:22.235Z,1.30
2019-06-08T17:33:57.110Z,5.87
2019-06-08T17:36:36.783Z,1.62
2019-06-08T17:39:10.343Z,5.87
2019-06-08T17:41:43.372Z,1.87
2019-06-08T17:44:16.298Z,1.65
2019-06-08T17:46:48.469Z,2.60
2019-06-08T17:51:52.077Z,2.53
2019-06-08T17:54:24.509Z,3.10
2019-06-08T17:56:56.868Z,2.55
2019-06-08T17:59:29.339Z,1.87
2019-06-08T18:02:01.933Z,2.77
2019-06-08T18:04:36.110Z,1.72
2019-06-08T18:07:08.857Z,1.30
2019-06-08T18:09:42.298Z,1.72
2019-06-08T18:12:18.320Z,1.95
2019-06-08T18:17:27.743Z,1.52
2019-06-08T18:19:59.827Z,1.35
2019-06-08T18:22:32.567Z,1.02
2019-06-08T18:25:07.577Z,1.75
2019-06-08T18:27:42.349Z,1.55
2019-06-08T18:30:19.170Z,1.60
2019-06-08T18:32:51.675Z,1.20
2019-06-08T18:35:24.353Z,1.40
2019-06-08T18:37:58.428Z,1.42
2019-06-08T18:40:31.772Z,1.25
2019-06-08T18:43:04.346Z,1.30
2019-06-08T18:49:11.391Z,1.87
2019-06-08T18:51:46.264Z,1.50
2019-06-08T18:54:21.122Z,1.80
2019-06-08T18:56:55.321Z,2.42
2019-06-08T18:59:30.686Z,2.70
2019-06-08T19:02:09.332Z,2.10
2019-06-08T19:04:43.255Z,2.10
2019-06-08T19:07:17.564Z,2.03
2019-06-08T19:09:51.581Z,1.50
2019-06-08T19:12:27.660Z,2.10
2019-06-08T19:14:59.876Z,1.47
2019-06-08T19:17:32.597Z,1.15
2019-06-08T19:20:08.138Z,1.42
2019-06-08T19:22:46.520Z,1.45
2019-06-08T19:25:17.599Z,1.82
2019-06-08T19:30:28.283Z,1.30
2019-06-08T19:35:46.129Z,1.50
2019-06-08T19:40:52.000Z,2.10
2019-06-08T19:43:31.335Z,1.85
2019-06-08T19:46:07.114Z,1.52
2019-06-08T19:48:44.046Z,2.17
2019-06-08T19:51:31.234Z,1.80
2019-06-08T19:54:07.108Z,1.92
2019-06-08T19:56:43.259Z,1.70
2019-06-08T19:59:17.721Z,2.32
2019-06-08T20:01:54.970Z,1.80
2019-06-08T20:04:24.015Z,1.50
2019-06-08T20:07:00.134Z,1.77
2019-06-08T20:09:30.597Z,1.35
2019-06-08T20:12:03.021Z,1.35
2019-06-08T20:14:37.488Z,1.65
2019-06-08T20:17:20.840Z,1.92
2019-06-08T20:19:58.407Z,1.77
2019-06-08T20:22:32.296Z,2.12
2019-06-08T20:25:10.206Z,1.60
2019-06-08T20:27:43.206Z,1.68
2019-06-08T20:30:17.425Z,1.75
2019-06-08T20:35:23.777Z,1.87
2019-06-08T20:37:57.900Z,1.93
2019-06-08T20:40:30.729Z,1.98
2019-06-08T20:43:03.296Z,1.72
2019-06-08T20:45:37.438Z,2.00
2019-06-08T20:48:27.378Z,1.82
2019-06-08T20:51:02.034Z,1.67
2019-06-08T20:53:34.613Z,1.60
2019-06-08T20:56:08.004Z,1.60
2019-06-08T20:58:40.636Z,1.70
2019-06-08T21:01:13.057Z,1.57
2019-06-08T21:03:47.868Z,1.70
2019-06-08T21:06:19.808Z,1.80
2019-06-08T21:08:53.274Z,1.92
2019-06-08T21:11:27.148Z,1.90
2019-06-08T21:14:07.639Z,1.60
2019-06-08T21:16:40.306Z,2.17
2019-06-08T21:19:23.284Z,1.50
2019-06-08T21:21:58.481Z,1.80
2019-06-08T21:24:37.115Z,1.87
2019-06-08T21:27:19.841Z,1.77
2019-06-08T21:30:06.801Z,1.70
2019-06-08T21:32:50.357Z,1.77
2019-06-08T21:47:01.281Z,1.90
2019-06-08T21:52:18.602Z,2.35
2019-06-08T21:57:27.724Z,2.08
2019-06-08T22:00:19.345Z,2.02
2019-06-08T22:02:47.825Z,2.00
2019-06-08T22:05:21.378Z,2.25
2019-06-08T22:07:54.061Z,1.75
2019-06-08T22:13:13.583Z,1.77
2019-06-08T22:15:47.457Z,2.00
2019-06-08T22:18:20.313Z,1.98
2019-06-08T22:20:53.253Z,2.40
2019-06-08T22:23:25.438Z,2.13
2019-06-08T22:26:01.148Z,2.75
2019-06-08T22:28:33.596Z,2.52
2019-06-08T22:31:07.918Z,2.50
2019-06-08T22:33:42.420Z,2.77
2019-06-08T22:36:15.025Z,2.62
2019-06-08T22:38:47.774Z,3.08
2019-06-08T22:41:20.381Z,2.83
2019-06-08T22:43:55.721Z,2.90
2019-06-08T22:46:28.597Z,2.70
2019-06-08T22:49:02.743Z,3.05
2019-06-08T22:51:38.309Z,3.08
2019-06-08T22:54:12.606Z,3.37
2019-06-08T22:56:47.642Z,3.48
2019-06-08T22:59:19.550Z,2.50
2019-06-08T23:01:53.351Z,2.50
2019-06-08T23:04:27.606Z,2.93
2019-06-08T23:07:03.976Z,2.25
2019-06-08T23:09:37.334Z,3.10
2019-06-08T23:12:11.028Z,2.70
2019-06-08T23:14:43.399Z,2.72
2019-06-08T23:17:17.761Z,3.07
2019-06-08T23:19:50.292Z,2.67
2019-06-08T23:22:22.577Z,2.60
2019-06-08T23:24:55.580Z,2.70
2019-06-08T23:27:28.275Z,2.50
2019-06-08T23:30:01.941Z,1.92
2019-06-08T23:32:34.803Z,2.45
2019-06-08T23:35:10.832Z,2.50
2019-06-08T23:37:43.366Z,2.20
2019-06-08T23:40:17.875Z,2.18
2019-06-08T23:42:50.552Z,2.35
2019-06-08T23:47:59.935Z,2.45
2019-06-08T23:50:32.544Z,2.75
2019-06-08T23:53:09.502Z,2.50
2019-06-08T23:56:19.355Z,2.55
